KPWA/PWA METAR and TAF weather

Enter ICAO airport designator
Station Type Date Time Source
KPWA METAR 2019/05/19 19:53 UTC NOAA

KPWA 191953Z 36007KT 10SM CLR 24/11 A2998 RMK AO2 SLP142 T02390111 $


Station Type Date Time Source
KPWA Decoded METAR 2019/05/19 19:53 UTC NOAA

WILEY POST, OK, United States (KPWA) 35-32N 97-39W 397M
May 19, 2019 - 03:53 PM EDT / 2019.05.19 1953 UTC
Wind: from the N (360 degrees) at 8 MPH (7 KT):0
Visibility: 10 mile(s):0
Sky conditions: clear
Temperature: 75.0 F (23.9 C)
Dew Point: 52.0 F (11.1 C)
Relative Humidity: 44%
Pressure (altimeter): 29.98 in. Hg (1015 hPa)
ob: KPWA 191953Z 36007KT 10SM CLR 24/11 A2998 RMK AO2 SLP142 T02390111
cycle: 20

Station Type Date Time Source
KPWA TAF UTC NOAA

Error!

Example: see airport list